Time;durP1;ratioP1;P1;durP2;ratioP2;P2;SDS_P1;SDS_P2;PMS_P1;PMS_P2;Temp;Humidity;BMP_temperature;BMP_pressure;BME280_temperature;BME280_humidity;BME280_pressure;Samples;Min_cycle;Max_cycle;Signal;HPM_P1;HPM_P2
2022/10/26 00:00:08;;;;;;;21.92;11.02;;;10.50;99.90;;;;;;5032561;28;20085;-75
2022/10/26 00:02:34;;;;;;;21.27;11.38;;;10.40;99.90;;;;;;5034624;28;20049;-77
2022/10/26 00:04:59;;;;;;;25.95;11.43;;;10.40;99.90;;;;;;5034490;28;20034;-76
2022/10/26 00:07:27;;;;;;;20.08;11.13;;;10.40;99.90;;;;;;5035061;28;20041;-77
2022/10/26 00:09:53;;;;;;;22.02;11.55;;;10.30;99.90;;;;;;5034869;28;20056;-79
2022/10/26 00:12:18;;;;;;;23.05;10.82;;;10.30;99.90;;;;;;5016959;28;20030;-78
2022/10/26 00:14:44;;;;;;;29.02;11.07;;;10.30;99.90;;;;;;5034879;28;20068;-78
2022/10/26 00:17:10;;;;;;;27.95;11.27;;;10.30;99.90;;;;;;5031820;28;20530;-78
2022/10/26 00:19:37;;;;;;;20.20;11.55;;;10.30;99.90;;;;;;5034729;28;20029;-78
2022/10/26 00:22:02;;;;;;;24.67;11.68;;;10.30;99.90;;;;;;5034854;28;20474;-77
2022/10/26 00:24:28;;;;;;;28.48;11.73;;;10.30;99.90;;;;;;5033890;28;20101;-77
2022/10/26 00:26:54;;;;;;;31.10;12.23;;;10.30;99.90;;;;;;5032965;28;20041;-79
2022/10/26 00:29:19;;;;;;;23.42;11.98;;;10.40;99.90;;;;;;5019808;28;20072;-78
2022/10/26 00:31:45;;;;;;;21.58;11.63;;;10.40;99.90;;;;;;5034875;28;20026;-78
2022/10/26 00:34:12;;;;;;;20.63;12.15;;;10.40;99.90;;;;;;5029210;28;20029;-78
2022/10/26 00:36:38;;;;;;;23.77;12.10;;;10.40;99.90;;;;;;5036750;28;20033;-78
2022/10/26 00:39:03;;;;;;;23.75;11.70;;;10.40;99.90;;;;;;5031353;28;20389;-78
2022/10/26 00:41:32;;;;;;;28.67;13.35;;;10.40;99.90;;;;;;5033812;28;20096;-77
2022/10/26 00:43:57;;;;;;;22.98;12.63;;;10.40;99.90;;;;;;5033113;28;20029;-78
2022/10/26 00:46:34;;;;;;;117.97;11.70;;;10.40;99.90;;;;;;5033671;28;20026;-77
2022/10/26 00:49:15;;;;;;;24.55;9.98;;;10.40;99.90;;;;;;5024350;28;20037;-78
2022/10/26 00:51:50;;;;;;;28.02;11.23;;;10.40;99.90;;;;;;5031744;28;20060;-77
2022/10/26 00:54:17;;;;;;;17.08;9.73;;;10.40;99.90;;;;;;5033808;28;20045;-77
2022/10/26 00:56:44;;;;;;;21.42;11.38;;;10.40;99.90;;;;;;5031884;28;20030;-77
2022/10/26 00:59:13;;;;;;;18.88;10.80;;;10.40;99.90;;;;;;5023670;28;20044;-77
2022/10/26 01:01:42;;;;;;;19.45;10.13;;;10.30;99.90;;;;;;5033818;28;20034;-77
2022/10/26 01:04:08;;;;;;;24.00;10.63;;;10.30;99.90;;;;;;5032689;28;20056;-78
2022/10/26 01:06:36;;;;;;;21.35;10.88;;;10.30;99.90;;;;;;5033799;28;20030;-78
2022/10/26 01:09:03;;;;;;;18.30;10.07;;;10.30;99.90;;;;;;5032099;28;20029;-77
2022/10/26 01:11:29;;;;;;;20.98;10.40;;;10.30;99.90;;;;;;5033587;28;20113;-77
2022/10/26 01:13:55;;;;;;;19.77;10.40;;;10.20;99.90;;;;;;5033424;28;20070;-78
2022/10/26 01:16:46;;;;;;;25.25;10.98;;;10.20;99.90;;;;;;5032379;28;20442;-79
2022/10/26 01:19:44;;;;;;;21.27;9.90;;;10.20;99.90;;;;;;5032110;28;20021;-77
2022/10/26 01:22:39;;;;;;;20.42;10.30;;;10.10;99.90;;;;;;5032074;28;20025;-78
2022/10/26 01:25:42;;;;;;;22.17;10.02;;;10.10;99.90;;;;;;5032114;28;20045;-79
2022/10/26 01:28:38;;;;;;;21.98;10.55;;;10.10;99.90;;;;;;5023352;28;20072;-78
2022/10/26 01:31:10;;;;;;;22.42;10.10;;;10.00;99.90;;;;;;5033412;28;20491;-78
2022/10/26 01:34:11;;;;;;;16.95;9.65;;;10.00;99.90;;;;;;5028362;28;20025;-79
2022/10/26 01:36:45;;;;;;;20.42;10.25;;;10.00;99.90;;;;;;5017137;28;20068;-78
2022/10/26 01:39:32;;;;;;;18.58;10.52;;;9.90;99.90;;;;;;5033595;28;20053;-78
2022/10/26 01:42:01;;;;;;;21.35;10.88;;;9.90;99.90;;;;;;5032993;28;20030;-78
2022/10/26 01:44:38;;;;;;;15.85;9.80;;;9.90;99.90;;;;;;5015191;28;20038;-78
2022/10/26 01:47:05;;;;;;;22.25;11.20;;;9.90;99.90;;;;;;5031297;28;20034;-76
2022/10/26 01:49:37;;;;;;;32.33;11.30;;;9.90;99.90;;;;;;5033981;28;20099;-78
2022/10/26 01:52:03;;;;;;;24.05;11.35;;;9.90;99.90;;;;;;5032557;28;20036;-77
2022/10/26 01:54:29;;;;;;;26.33;11.35;;;9.90;99.90;;;;;;5032171;28;20088;-78
2022/10/26 01:57:00;;;;;;;28.73;12.10;;;10.00;99.90;;;;;;5030867;28;20025;-79
2022/10/26 01:59:54;;;;;;;28.60;12.05;;;9.90;99.90;;;;;;5031529;28;20053;-79
2022/10/26 02:02:42;;;;;;;21.80;11.10;;;9.90;99.90;;;;;;5032291;28;20022;-78
2022/10/26 02:05:19;;;;;;;28.55;13.13;;;9.90;99.90;;;;;;5015069;28;20522;-78
2022/10/26 02:08:22;;;;;;;21.85;11.90;;;9.90;99.90;;;;;;5034428;28;20064;-78
2022/10/26 02:10:57;;;;;;;24.23;12.20;;;9.90;99.90;;;;;;5022153;28;20079;-77
2022/10/26 02:13:43;;;;;;;27.77;12.98;;;9.90;99.90;;;;;;5034446;28;20033;-78
2022/10/26 02:16:47;;;;;;;25.05;13.23;;;9.90;99.90;;;;;;5033143;28;20036;-78
2022/10/26 02:19:30;;;;;;;22.70;11.48;;;9.90;99.90;;;;;;4968411;28;20096;-78
2022/10/26 02:22:11;;;;;;;25.13;12.77;;;10.00;99.90;;;;;;4952632;28;20038;-77
2022/10/26 02:24:38;;;;;;;26.35;12.73;;;10.00;99.90;;;;;;5012657;28;20049;-77
2022/10/26 02:27:07;;;;;;;31.63;14.48;;;9.90;99.90;;;;;;5032658;28;20031;-77
2022/10/26 02:29:34;;;;;;;32.53;15.00;;;9.90;99.90;;;;;;5031270;28;20048;-78
2022/10/26 02:32:01;;;;;;;34.35;14.93;;;9.90;99.90;;;;;;5031805;28;20032;-77
2022/10/26 02:34:29;;;;;;;32.22;14.45;;;9.90;99.90;;;;;;5030959;28;20033;-77
2022/10/26 02:36:58;;;;;;;31.45;15.23;;;9.80;99.90;;;;;;5030155;28;20033;-78
2022/10/26 02:39:27;;;;;;;33.05;14.88;;;9.80;99.90;;;;;;5030988;28;20060;-78
2022/10/26 02:41:55;;;;;;;33.55;14.32;;;9.70;99.90;;;;;;5031555;28;20017;-79
2022/10/26 02:44:25;;;;;;;32.70;14.50;;;9.70;99.90;;;;;;5030769;28;20040;-79
2022/10/26 02:46:55;;;;;;;32.33;14.57;;;9.70;99.90;;;;;;5031151;28;20022;-79
2022/10/26 02:49:23;;;;;;;37.90;14.95;;;9.70;99.90;;;;;;5032509;28;20053;-78
2022/10/26 02:51:52;;;;;;;27.20;15.00;;;9.70;99.90;;;;;;5014167;28;20080;-79
2022/10/26 02:54:55;;;;;;;32.10;14.48;;;9.60;99.90;;;;;;5032025;28;20103;-78
2022/10/26 02:57:39;;;;;;;32.72;15.73;;;9.60;99.90;;;;;;5014710;28;20072;-77
2022/10/26 03:00:07;;;;;;;34.17;13.52;;;9.60;99.90;;;;;;5030481;28;20037;-78
2022/10/26 03:02:32;;;;;;;40.70;16.15;;;9.60;99.90;;;;;;5031889;28;20033;-79
2022/10/26 03:05:09;;;;;;;31.85;15.40;;;9.50;99.90;;;;;;5031757;28;20389;-78
2022/10/26 03:07:34;;;;;;;30.75;15.57;;;9.50;99.90;;;;;;5030195;28;20026;-78
2022/10/26 03:10:00;;;;;;;31.73;15.18;;;9.50;99.90;;;;;;5032780;28;20143;-77
2022/10/26 03:12:26;;;;;;;31.45;14.85;;;9.50;99.90;;;;;;5030873;28;20030;-78
2022/10/26 03:14:51;;;;;;;51.70;15.23;;;9.50;99.90;;;;;;5031419;28;20401;-76
2022/10/26 03:17:17;;;;;;;32.33;14.63;;;9.50;99.90;;;;;;5031797;28;20029;-77
2022/10/26 03:19:42;;;;;;;44.75;16.05;;;9.50;99.90;;;;;;5029093;28;20034;-78
2022/10/26 03:22:08;;;;;;;37.67;15.52;;;9.50;99.90;;;;;;5013989;28;20032;-78
2022/10/26 03:24:34;;;;;;;37.30;15.23;;;9.50;99.90;;;;;;5013362;28;20052;-78
2022/10/26 03:26:59;;;;;;;50.22;15.60;;;9.50;99.90;;;;;;5030770;28;20081;-78
2022/10/26 03:29:25;;;;;;;36.67;15.82;;;9.50;99.90;;;;;;5033456;28;20036;-79
2022/10/26 03:31:53;;;;;;;35.45;15.90;;;9.40;99.90;;;;;;5013364;28;20034;-77
2022/10/26 03:34:19;;;;;;;35.22;14.68;;;9.40;99.90;;;;;;5031407;28;20084;-77
2022/10/26 03:36:45;;;;;;;28.95;14.73;;;9.40;99.90;;;;;;5031565;28;20382;-77
2022/10/26 03:39:11;;;;;;;36.28;14.98;;;9.40;99.90;;;;;;5031300;28;20021;-78
2022/10/26 03:41:37;;;;;;;44.47;15.93;;;9.30;99.90;;;;;;5013365;28;20037;-76
2022/10/26 03:44:02;;;;;;;29.05;14.35;;;9.40;99.90;;;;;;5031240;28;20666;-77
2022/10/26 03:46:28;;;;;;;40.05;15.57;;;9.40;99.90;;;;;;5031162;28;20067;-78
2022/10/26 03:48:54;;;;;;;43.50;15.82;;;9.40;99.90;;;;;;5014861;28;20040;-79
2022/10/26 03:51:19;;;;;;;32.20;15.05;;;9.40;99.90;;;;;;5031505;28;20061;-77
2022/10/26 03:53:45;;;;;;;33.45;14.75;;;9.30;99.90;;;;;;5030414;28;21231;-76
2022/10/26 03:56:10;;;;;;;31.30;14.65;;;9.30;99.90;;;;;;5028411;28;20080;-78
2022/10/26 03:58:36;;;;;;;29.70;14.55;;;9.30;99.90;;;;;;5029856;28;20112;-76
2022/10/26 04:01:01;;;;;;;24.27;14.40;;;9.30;99.90;;;;;;5030670;28;20021;-77
2022/10/26 04:03:27;;;;;;;27.70;13.55;;;9.30;99.90;;;;;;5033769;28;20478;-76
2022/10/26 04:05:53;;;;;;;25.05;13.25;;;9.30;99.90;;;;;;5029806;28;20026;-77
2022/10/26 04:08:19;;;;;;;22.65;12.27;;;9.30;99.90;;;;;;5031054;28;20091;-77
2022/10/26 04:10:46;;;;;;;25.23;12.35;;;9.30;99.90;;;;;;5031419;28;20482;-77
2022/10/26 04:13:11;;;;;;;23.27;12.68;;;9.30;99.90;;;;;;5030980;28;20029;-77
2022/10/26 04:15:37;;;;;;;23.98;11.82;;;9.30;99.90;;;;;;5030872;28;20493;-78
2022/10/26 04:18:03;;;;;;;20.00;12.23;;;9.30;99.90;;;;;;5012806;28;20053;-78
2022/10/26 04:20:31;;;;;;;21.83;12.75;;;9.20;99.90;;;;;;5025929;28;20030;-78
2022/10/26 04:23:02;;;;;;;21.85;12.40;;;9.20;99.90;;;;;;5032374;28;20045;-77
2022/10/26 04:25:29;;;;;;;23.48;12.43;;;9.20;99.90;;;;;;5029750;28;20039;-76
2022/10/26 04:27:55;;;;;;;23.85;13.25;;;9.20;99.90;;;;;;5033132;28;20025;-76
2022/10/26 04:30:20;;;;;;;30.88;12.23;;;9.20;99.90;;;;;;5034787;28;20030;-77
2022/10/26 04:32:46;;;;;;;24.08;14.23;;;9.20;99.90;;;;;;5034891;28;20749;-76
2022/10/26 04:35:12;;;;;;;28.33;14.50;;;9.20;99.90;;;;;;5024787;28;20108;-78
2022/10/26 04:37:37;;;;;;;28.00;13.18;;;9.20;99.90;;;;;;5033444;28;20022;-76
2022/10/26 04:40:03;;;;;;;25.58;13.85;;;9.20;99.90;;;;;;5031395;28;20470;-77
2022/10/26 04:42:32;;;;;;;23.67;12.98;;;9.10;99.90;;;;;;5031489;28;20722;-76
2022/10/26 04:44:59;;;;;;;21.50;12.13;;;9.10;99.90;;;;;;5034584;28;20671;-77
2022/10/26 04:47:24;;;;;;;25.55;13.38;;;9.10;99.90;;;;;;5034509;28;20025;-77
2022/10/26 04:49:50;;;;;;;26.77;14.05;;;9.10;99.90;;;;;;5034697;28;20064;-77
2022/10/26 04:52:16;;;;;;;27.17;14.07;;;9.10;99.90;;;;;;5035977;28;20387;-76
2022/10/26 04:54:41;;;;;;;29.95;14.00;;;9.00;99.90;;;;;;5033321;28;20046;-77
2022/10/26 04:57:07;;;;;;;25.98;13.88;;;9.00;99.90;;;;;;5034675;28;20040;-76
2022/10/26 04:59:32;;;;;;;28.42;13.60;;;9.00;99.90;;;;;;5032335;28;20032;-77
2022/10/26 05:01:58;;;;;;;30.30;13.90;;;9.00;99.90;;;;;;5015774;28;20536;-78
2022/10/26 05:04:24;;;;;;;24.75;13.77;;;9.00;99.90;;;;;;5015803;28;20062;-77
2022/10/26 05:06:52;;;;;;;25.15;13.95;;;9.00;99.90;;;;;;5031936;28;20409;-77
2022/10/26 05:09:17;;;;;;;28.60;13.98;;;9.00;99.90;;;;;;5032002;28;20045;-76
2022/10/26 05:11:43;;;;;;;28.17;14.60;;;8.90;99.90;;;;;;5015539;28;20406;-76
2022/10/26 05:14:09;;;;;;;24.75;13.35;;;8.90;99.90;;;;;;5017162;28;20041;-76
2022/10/26 05:16:34;;;;;;;28.17;13.90;;;8.80;99.90;;;;;;5034217;28;20021;-77
2022/10/26 05:19:00;;;;;;;27.88;14.30;;;8.90;99.90;;;;;;5033762;28;20036;-77
2022/10/26 05:21:25;;;;;;;33.60;15.18;;;8.90;99.90;;;;;;5035992;28;20034;-77
2022/10/26 05:23:54;;;;;;;30.73;14.85;;;8.90;99.90;;;;;;5033657;28;20034;-78
2022/10/26 05:26:21;;;;;;;29.70;13.85;;;8.80;99.90;;;;;;5031846;28;20080;-77
2022/10/26 05:28:47;;;;;;;30.90;14.55;;;8.80;99.90;;;;;;5032745;28;20041;-78
2022/10/26 05:31:13;;;;;;;33.42;15.70;;;8.70;99.90;;;;;;5036231;28;21063;-77
2022/10/26 05:33:38;;;;;;;43.80;15.60;;;8.80;99.90;;;;;;5035939;28;20165;-79
2022/10/26 05:36:05;;;;;;;29.80;14.93;;;8.70;99.90;;;;;;5015266;28;20033;-79
2022/10/26 05:38:31;;;;;;;34.53;14.52;;;8.70;99.90;;;;;;5034059;28;20033;-80
2022/10/26 05:40:58;;;;;;;28.60;14.82;;;8.70;99.90;;;;;;5032506;28;20441;-80
2022/10/26 05:43:25;;;;;;;30.63;14.10;;;8.60;99.90;;;;;;5034854;28;20038;-80
2022/10/26 05:45:52;;;;;;;29.95;14.02;;;8.60;99.90;;;;;;5034331;28;20033;-80
2022/10/26 05:48:19;;;;;;;30.23;14.25;;;8.70;99.90;;;;;;5017932;28;20053;-80
2022/10/26 05:50:45;;;;;;;31.30;15.63;;;8.70;99.90;;;;;;5034502;28;20026;-80
2022/10/26 05:53:10;;;;;;;33.38;15.77;;;8.70;99.90;;;;;;5015913;28;20529;-80
2022/10/26 05:55:37;;;;;;;33.30;15.48;;;8.60;99.90;;;;;;5034417;28;20038;-80
2022/10/26 05:58:03;;;;;;;31.50;15.63;;;8.60;99.90;;;;;;5034638;28;20034;-79
2022/10/26 06:00:29;;;;;;;36.95;15.30;;;8.60;99.90;;;;;;5034239;28;20037;-79
2022/10/26 06:03:03;;;;;;;27.90;15.07;;;8.60;99.90;;;;;;5032958;28;20030;-78
2022/10/26 06:05:36;;;;;;;30.42;14.10;;;8.60;99.90;;;;;;5020367;28;20033;-78
2022/10/26 06:08:02;;;;;;;26.35;13.85;;;8.50;99.90;;;;;;5032305;28;20037;-79
2022/10/26 06:10:28;;;;;;;27.25;13.57;;;8.60;99.90;;;;;;5033024;28;20033;-80
2022/10/26 06:12:53;;;;;;;23.95;12.77;;;8.60;99.90;;;;;;5032861;28;20052;-80
2022/10/26 06:15:21;;;;;;;25.27;13.00;;;8.60;99.90;;;;;;5030232;28;20067;-76
2022/10/26 06:17:52;;;;;;;24.83;13.18;;;8.60;99.90;;;;;;5032694;28;20044;-79
2022/10/26 06:20:55;;;;;;;23.52;13.00;;;8.60;99.90;;;;;;5035876;28;20044;-77
2022/10/26 06:24:15;;;;;;;23.90;12.98;;;8.50;99.90;;;;;;5021908;28;20040;-78
2022/10/26 06:26:51;;;;;;;23.48;12.07;;;8.50;99.90;;;;;;4960105;29;20103;-77
2022/10/26 06:29:44;;;;;;;24.55;13.30;;;8.50;99.90;;;;;;5031932;28;20401;-79
2022/10/26 06:32:10;;;;;;;24.60;12.63;;;8.50;99.90;;;;;;5033462;28;20036;-77
2022/10/26 06:34:42;;;;;;;26.50;13.18;;;8.50;99.90;;;;;;5032860;28;20059;-79
2022/10/26 06:37:09;;;;;;;21.63;11.68;;;8.60;99.90;;;;;;5032488;28;20048;-77
2022/10/26 06:39:41;;;;;;;26.15;12.82;;;8.50;99.90;;;;;;5031194;28;20140;-78
2022/10/26 06:42:09;;;;;;;25.48;12.07;;;8.50;99.90;;;;;;5029661;28;20508;-77
2022/10/26 06:44:35;;;;;;;26.15;12.13;;;8.50;99.90;;;;;;5047369;28;20032;-78
2022/10/26 06:47:22;;;;;;;24.95;11.52;;;8.50;99.90;;;;;;5032813;28;20041;-77
2022/10/26 06:50:19;;;;;;;20.75;11.40;;;8.50;99.90;;;;;;5032323;28;20042;-78
2022/10/26 06:52:54;;;;;;;20.30;10.82;;;8.50;99.90;;;;;;5015302;28;20124;-76
2022/10/26 06:55:21;;;;;;;24.88;10.82;;;8.50;99.90;;;;;;5009959;28;20071;-79
2022/10/26 06:57:48;;;;;;;32.72;11.85;;;8.50;99.90;;;;;;5028606;28;20038;-77
2022/10/26 07:00:22;;;;;;;22.73;10.77;;;8.60;99.90;;;;;;5014521;28;20035;-79
2022/10/26 07:02:48;;;;;;;20.13;11.40;;;8.60;99.90;;;;;;5013432;28;20038;-81
2022/10/26 07:05:14;;;;;;;43.80;11.77;;;8.60;99.90;;;;;;5015468;28;20671;-79
2022/10/26 07:07:45;;;;;;;31.88;12.18;;;8.80;99.90;;;;;;5014250;28;20030;-79
2022/10/26 07:10:12;;;;;;;24.45;11.70;;;8.80;99.90;;;;;;5013782;28;20042;-78
2022/10/26 07:12:38;;;;;;;19.10;10.32;;;8.90;99.90;;;;;;5014143;28;20022;-80
2022/10/26 07:15:04;;;;;;;34.97;10.57;;;9.00;99.90;;;;;;5027596;28;20026;-79
2022/10/26 07:17:30;;;;;;;42.42;10.68;;;8.90;99.90;;;;;;5027217;28;20037;-80
2022/10/26 07:19:56;;;;;;;110.30;10.40;;;9.00;99.90;;;;;;5030239;28;20039;-79
2022/10/26 07:22:22;;;;;;;100.88;11.98;;;9.10;99.90;;;;;;5014808;28;20112;-79
2022/10/26 07:24:50;;;;;;;26.88;10.85;;;9.10;99.90;;;;;;5013524;28;20029;-80
2022/10/26 07:27:16;;;;;;;45.13;11.43;;;9.20;99.90;;;;;;5026850;28;20471;-82
2022/10/26 07:29:41;;;;;;;21.35;10.90;;;9.10;99.90;;;;;;5013156;28;20045;-80
2022/10/26 07:32:08;;;;;;;25.10;10.68;;;9.30;99.90;;;;;;5018146;28;20048;-78
2022/10/26 07:34:34;;;;;;;18.92;10.50;;;9.40;99.90;;;;;;5018812;28;20030;-78
2022/10/26 07:37:00;;;;;;;21.65;11.02;;;9.30;99.90;;;;;;5011613;28;20444;-79
2022/10/26 07:39:26;;;;;;;27.08;10.65;;;9.30;99.90;;;;;;5016346;28;20053;-80
2022/10/26 07:41:52;;;;;;;26.05;10.88;;;9.30;99.90;;;;;;5022296;28;20045;-79
2022/10/26 07:44:18;;;;;;;19.75;11.32;;;9.40;99.90;;;;;;5008771;28;20033;-80
2022/10/26 07:46:43;;;;;;;20.40;10.65;;;9.40;99.90;;;;;;5012251;28;20030;-77
2022/10/26 07:49:09;;;;;;;22.20;11.23;;;9.40;99.90;;;;;;5026521;28;20050;-79
2022/10/26 07:51:35;;;;;;;26.73;11.07;;;9.40;99.90;;;;;;5013222;28;20026;-78
2022/10/26 07:54:08;;;;;;;20.85;11.32;;;9.50;99.90;;;;;;5020848;28;20059;-81
2022/10/26 07:56:33;;;;;;;24.63;12.30;;;9.60;99.90;;;;;;5029827;28;20025;-79
2022/10/26 07:58:59;;;;;;;20.17;11.02;;;9.60;99.90;;;;;;5026435;28;20049;-78
2022/10/26 08:01:25;;;;;;;23.95;11.38;;;9.70;99.90;;;;;;5016519;28;20021;-79
2022/10/26 08:03:52;;;;;;;19.17;10.35;;;9.70;99.90;;;;;;5019354;28;20104;-79
2022/10/26 08:06:18;;;;;;;25.00;11.57;;;9.80;99.90;;;;;;5035619;28;20058;-79
2022/10/26 08:08:45;;;;;;;23.17;11.63;;;9.90;99.90;;;;;;5027622;28;20049;-76
2022/10/26 08:11:15;;;;;;;24.42;11.57;;;9.90;99.90;;;;;;5033564;28;20060;-81
2022/10/26 08:13:41;;;;;;;21.55;10.95;;;10.00;99.90;;;;;;5035388;28;20416;-78
2022/10/26 08:16:07;;;;;;;21.75;11.30;;;10.00;99.90;;;;;;5019807;28;20044;-79
2022/10/26 08:18:32;;;;;;;22.27;11.32;;;10.10;99.90;;;;;;5038285;28;20037;-78
2022/10/26 08:21:11;;;;;;;24.10;11.45;;;10.10;99.90;;;;;;5037869;28;20112;-80
2022/10/26 08:23:37;;;;;;;21.33;11.02;;;10.10;99.90;;;;;;5019765;28;20025;-78
2022/10/26 08:26:03;;;;;;;22.33;11.27;;;10.20;99.90;;;;;;5037259;28;20039;-79
2022/10/26 08:28:29;;;;;;;18.30;11.10;;;10.10;99.90;;;;;;5020496;28;20052;-79
2022/10/26 08:30:55;;;;;;;22.15;11.02;;;10.20;99.90;;;;;;5038442;28;20045;-78
2022/10/26 08:33:22;;;;;;;18.23;10.85;;;10.20;99.90;;;;;;5037535;28;20042;-80
2022/10/26 08:35:53;;;;;;;23.00;10.95;;;10.20;99.90;;;;;;5036098;28;20021;-79
2022/10/26 08:38:18;;;;;;;20.48;11.50;;;10.20;99.90;;;;;;5039175;28;20076;-81
2022/10/26 08:40:44;;;;;;;19.92;11.10;;;10.20;99.90;;;;;;5034641;28;20030;-80
2022/10/26 08:43:28;;;;;;;23.73;11.35;;;10.30;99.90;;;;;;5035968;28;20093;-80
2022/10/26 08:46:03;;;;;;;22.48;10.57;;;10.30;99.90;;;;;;5035478;28;20056;-80
2022/10/26 08:48:34;;;;;;;22.13;10.80;;;10.30;99.90;;;;;;5034164;28;20037;-80
2022/10/26 08:51:26;;;;;;;18.42;10.23;;;10.30;99.90;;;;;;5036296;28;20034;-80
2022/10/26 08:53:58;;;;;;;22.02;11.38;;;10.40;99.90;;;;;;5035998;28;20055;-78
2022/10/26 08:56:36;;;;;;;21.13;10.98;;;10.40;99.90;;;;;;5036329;28;20022;-79
2022/10/26 08:59:30;;;;;;;27.42;11.50;;;10.50;99.90;;;;;;5035547;28;20025;-79
2022/10/26 09:01:56;;;;;;;23.03;11.10;;;10.70;99.90;;;;;;5036020;28;20097;-78
2022/10/26 09:04:26;;;;;;;21.45;11.05;;;10.90;99.90;;;;;;5037326;28;20063;-79
2022/10/26 09:07:01;;;;;;;18.88;11.15;;;11.10;99.90;;;;;;5024896;28;20062;-78
2022/10/26 09:09:31;;;;;;;;;;;11.30;99.90;;;;;;5037232;28;20034;-78
2022/10/26 09:12:02;;;;;;;26.30;11.77;;;11.60;99.90;;;;;;5033391;28;19917;-78
2022/10/26 09:15:04;;;;;;;24.15;11.52;;;11.70;99.90;;;;;;5024729;28;20033;-77
2022/10/26 09:18:02;;;;;;;24.85;12.23;;;11.90;99.90;;;;;;5034246;28;20069;-77
2022/10/26 09:20:51;;;;;;;24.65;10.95;;;12.00;99.90;;;;;;5034958;28;20036;-77
2022/10/26 09:23:29;;;;;;;25.05;11.35;;;12.10;99.90;;;;;;5035541;28;20026;-76
2022/10/26 09:26:11;;;;;;;26.40;12.07;;;12.20;99.90;;;;;;5035324;28;20044;-74
2022/10/26 09:28:39;;;;;;;19.65;11.57;;;12.30;99.90;;;;;;5036043;28;20083;-76
2022/10/26 09:31:05;;;;;;;22.85;11.65;;;12.50;99.90;;;;;;5033421;28;20030;-75
2022/10/26 09:33:35;;;;;;;27.08;12.02;;;12.50;99.90;;;;;;5036954;28;20073;-76
2022/10/26 09:36:08;;;;;;;22.30;11.48;;;12.60;99.90;;;;;;5035642;28;20021;-77
2022/10/26 09:38:40;;;;;;;19.25;10.13;;;12.70;99.90;;;;;;5032431;28;20474;-75
2022/10/26 09:41:08;;;;;;;20.77;11.05;;;12.70;99.90;;;;;;5034333;28;20026;-76
2022/10/26 09:44:12;;;;;;;22.10;11.80;;;12.80;99.90;;;;;;5039204;28;20038;-76
2022/10/26 09:46:54;;;;;;;24.70;10.88;;;12.90;99.90;;;;;;5008527;28;20076;-75
2022/10/26 09:49:29;;;;;;;21.60;10.88;;;13.10;99.90;;;;;;5032750;28;20048;-79
2022/10/26 09:51:54;;;;;;;22.17;10.32;;;13.20;99.90;;;;;;5035963;28;20021;-75
2022/10/26 09:54:21;;;;;;;21.13;10.93;;;13.30;99.90;;;;;;5021251;28;20137;-76
2022/10/26 09:56:53;;;;;;;21.50;10.90;;;13.40;99.90;;;;;;5036808;28;20034;-76
2022/10/26 09:59:22;;;;;;;21.20;10.43;;;13.50;99.90;;;;;;5035424;28;20041;-76
2022/10/26 10:01:48;;;;;;;20.92;10.60;;;13.60;99.90;;;;;;5037515;28;20025;-74
2022/10/26 10:04:16;;;;;;;18.15;9.30;;;13.80;99.90;;;;;;5034486;28;20026;-74
2022/10/26 10:06:43;;;;;;;16.30;9.50;;;14.00;99.90;;;;;;5036925;28;20051;-76
2022/10/26 10:09:19;;;;;;;22.23;10.10;;;14.10;99.90;;;;;;5034218;28;20490;-77
2022/10/26 10:12:01;;;;;;;19.58;9.23;;;14.30;99.90;;;;;;5025654;28;20037;-75
2022/10/26 10:14:30;;;;;;;22.27;9.77;;;14.40;99.90;;;;;;5019804;28;20379;-76
2022/10/26 10:17:18;;;;;;;18.65;9.18;;;14.60;99.90;;;;;;5034895;28;20119;-75
2022/10/26 10:19:44;;;;;;;15.75;8.43;;;14.70;99.90;;;;;;5034598;28;20028;-77
2022/10/26 10:22:18;;;;;;;15.23;8.82;;;14.80;99.90;;;;;;5033683;28;20037;-75
2022/10/26 10:24:59;;;;;;;19.90;9.27;;;14.90;99.90;;;;;;5034610;28;20037;-77
2022/10/26 10:27:30;;;;;;;21.33;9.13;;;15.10;99.90;;;;;;5027719;28;20059;-77
2022/10/26 10:29:58;;;;;;;16.30;8.85;;;15.20;99.90;;;;;;5031429;28;20101;-75
2022/10/26 10:32:30;;;;;;;20.70;8.93;;;15.30;99.90;;;;;;5028682;28;20018;-76
2022/10/26 10:35:00;;;;;;;17.92;8.48;;;15.40;99.90;;;;;;5032314;28;20033;-77
2022/10/26 10:37:41;;;;;;;18.23;8.70;;;15.40;99.90;;;;;;5032054;28;20022;-76
2022/10/26 10:40:08;;;;;;;18.00;9.00;;;15.40;99.90;;;;;;5030557;28;20025;-75
2022/10/26 10:42:38;;;;;;;16.70;8.45;;;15.30;99.90;;;;;;5031637;28;20022;-76
2022/10/26 10:45:06;;;;;;;18.92;8.25;;;15.20;99.90;;;;;;5034557;28;20064;-76
2022/10/26 10:47:34;;;;;;;20.27;8.98;;;15.20;99.90;;;;;;5032279;28;20029;-77
2022/10/26 10:50:16;;;;;;;24.08;9.10;;;15.20;99.90;;;;;;5034344;28;20770;-76
2022/10/26 10:52:42;;;;;;;21.50;9.27;;;15.20;99.90;;;;;;5033362;28;20059;-76
2022/10/26 10:55:19;;;;;;;21.60;7.47;;;15.40;99.90;;;;;;5032790;28;20080;-76
2022/10/26 10:58:20;;;;;;;12.77;7.10;;;15.50;99.90;;;;;;5030726;28;20118;-76
2022/10/26 11:00:48;;;;;;;14.90;7.45;;;15.60;99.90;;;;;;5031605;28;20708;-75
2022/10/26 11:03:22;;;;;;;23.70;7.63;;;15.80;99.90;;;;;;5038058;28;20041;-77
2022/10/26 11:06:10;;;;;;;13.07;6.60;;;16.00;99.90;;;;;;5032925;28;20034;-76
2022/10/26 11:08:39;;;;;;;17.90;7.88;;;16.10;99.90;;;;;;5014275;28;20042;-76
2022/10/26 11:11:19;;;;;;;18.27;7.22;;;16.20;99.90;;;;;;5033790;28;20029;-77
2022/10/26 11:14:02;;;;;;;15.93;6.80;;;16.20;99.90;;;;;;5032885;28;20038;-79
2022/10/26 11:16:42;;;;;;;14.20;6.88;;;16.30;99.90;;;;;;5033658;28;20038;-73
2022/10/26 11:19:27;;;;;;;13.20;6.88;;;16.20;99.90;;;;;;5032286;28;20022;-77
2022/10/26 11:21:54;;;;;;;15.85;7.00;;;16.10;99.90;;;;;;5014430;28;20292;-77
2022/10/26 11:24:29;;;;;;;14.63;6.90;;;15.90;99.90;;;;;;5032997;28;20025;-77
2022/10/26 11:27:07;;;;;;;11.40;6.20;;;15.70;99.90;;;;;;5031707;28;20097;-79
2022/10/26 11:29:46;;;;;;;14.73;6.18;;;15.60;99.90;;;;;;5035691;28;20045;-75
2022/10/26 11:32:32;;;;;;;13.95;6.28;;;15.50;99.90;;;;;;5031812;28;20579;-75
2022/10/26 11:35:18;;;;;;;10.50;5.75;;;15.50;99.90;;;;;;5026085;28;20114;-77
2022/10/26 11:38:00;;;;;;;12.18;6.30;;;15.40;99.90;;;;;;5030596;28;20033;-77
2022/10/26 11:40:46;;;;;;;9.50;5.70;;;15.40;99.90;;;;;;5032020;28;20036;-78
2022/10/26 11:43:41;;;;;;;14.77;6.28;;;15.40;99.90;;;;;;5016132;28;20127;-77
2022/10/26 11:46:36;;;;;;;11.45;5.88;;;15.50;99.90;;;;;;5020082;28;20037;-76
2022/10/26 11:49:19;;;;;;;16.48;6.07;;;15.60;99.90;;;;;;5014553;28;20045;-77
2022/10/26 11:51:51;;;;;;;12.90;6.60;;;15.60;99.90;;;;;;5034610;28;20124;-75
2022/10/26 11:54:38;;;;;;;12.65;6.05;;;15.60;99.90;;;;;;5030666;28;20054;-77
2022/10/26 11:57:12;;;;;;;9.93;5.32;;;15.60;99.90;;;;;;5034206;28;20046;-77
2022/10/26 11:59:45;;;;;;;14.75;6.28;;;15.60;99.90;;;;;;5018766;28;20089;-77
2022/10/26 12:02:21;;;;;;;11.13;6.53;;;15.60;99.90;;;;;;5033509;28;20045;-78
2022/10/26 12:05:14;;;;;;;11.23;5.93;;;15.70;99.90;;;;;;5030699;28;20283;-73
2022/10/26 12:07:43;;;;;;;12.65;6.10;;;15.70;99.90;;;;;;5031917;28;20093;-77
2022/10/26 12:10:23;;;;;;;11.80;6.30;;;15.80;99.90;;;;;;5031459;28;20051;-77
2022/10/26 12:13:22;;;;;;;16.38;6.15;;;16.10;99.90;;;;;;5029418;28;20029;-76
2022/10/26 12:15:57;;;;;;;11.73;6.40;;;16.40;99.90;;;;;;5031264;28;20033;-78
2022/10/26 12:18:38;;;;;;;16.38;5.85;;;16.60;99.90;;;;;;5015397;28;20113;-74
2022/10/26 12:21:06;;;;;;;12.05;5.93;;;16.90;99.90;;;;;;5033007;28;20028;-75
2022/10/26 12:23:56;;;;;;;16.38;6.03;;;17.20;99.90;;;;;;5034006;28;20084;-75
2022/10/26 12:26:24;;;;;;;11.07;5.90;;;17.40;99.90;;;;;;5028438;28;20106;-75
2022/10/26 12:29:03;;;;;;;10.95;5.45;;;17.60;99.90;;;;;;5029659;28;20112;-76
2022/10/26 12:31:31;;;;;;;11.82;5.80;;;17.70;99.90;;;;;;5016126;28;20844;-74
2022/10/26 12:33:58;;;;;;;15.27;5.80;;;17.90;99.90;;;;;;5032637;28;20034;-76
2022/10/26 12:36:47;;;;;;;12.02;5.82;;;18.00;99.90;;;;;;5032606;28;20029;-75
2022/10/26 12:39:28;;;;;;;12.07;5.65;;;18.20;99.90;;;;;;5031164;28;20056;-74
2022/10/26 12:42:19;;;;;;;8.27;5.07;;;18.30;99.90;;;;;;5031267;28;20021;-74
2022/10/26 12:44:44;;;;;;;8.95;5.72;;;18.30;99.90;;;;;;5021156;28;20489;-75
2022/10/26 12:47:31;;;;;;;22.15;5.72;;;18.40;99.90;;;;;;5022324;28;20076;-75
2022/10/26 12:49:59;;;;;;;12.93;5.65;;;18.50;99.90;;;;;;4988304;28;20049;-76
2022/10/26 12:52:55;;;;;;;11.57;5.28;;;18.50;99.90;;;;;;5036383;28;20030;-78
2022/10/26 12:55:48;;;;;;;17.40;5.38;;;18.50;99.90;;;;;;5037032;28;20049;-76
2022/10/26 12:58:29;;;;;;;10.02;5.30;;;18.50;99.90;;;;;;5032434;28;20036;-76
2022/10/26 13:00:58;;;;;;;8.27;4.78;;;18.50;99.90;;;;;;5020079;28;20100;-76